Un Karadeniz — TCTD3 — position and weather

sailwx.info

Track history (hours):
 
Tides and Currents Weather Stations Pressure Air Temp Water Temp Dewpoint Dewpoint Depression Visibility Wind Speed Wind Dir Waves Ship Positions

Un Karadeniz

Last reported at 2014-Dec-21 18:34 UTC. Time now 2014-Dec-22 01:24 UTC.
Position N 37°43' E 024°30'.

Length 193 m; draft 6.9 m.

Type: Ship (hazmat cat A). MMSI: 271002571.

Date/timePositionNaut miles runAvg speedWind from/ knotsBaromVisibWave heightAir tempDewpointWater temp
2014-Dec-21 18:34N 37°43' E 024°30'2117.9
2014-Dec-21 17:24N 37°26' E 024°15'2318.7
2014-Dec-21 16:10N 37°08' E 023°56'1219.1
2014-Dec-21 15:33N 36°59' E 023°47'  
2014-Dec-17 19:27N 36°24' E 022°52'2318.7
2014-Dec-17 18:12N 36°32' E 023°19'1320.7
2014-Dec-17 17:33N 36°42' E 023°30'2020.4
2014-Dec-17 16:33N 36°57' E 023°47'2019.6
2014-Dec-17 15:33N 37°13' E 024°02'2019.8
2014-Dec-17 14:34N 37°28' E 024°17'2019.6
2014-Dec-17 13:33N 37°45' E 024°31'2519.9
2014-Dec-17 12:17N 38°08' E 024°45'1519.8
2014-Dec-17 11:33N 38°21' E 024°53'14217.1
2014-Dec-17 03:14N 40°19' E 026°36'9419.8
2014-Dec-16 22:28N 40°52' E 028°32'1719.1
2014-Dec-16 21:33N 40°51' E 028°56'1615.6
2014-Dec-16 20:33N 40°51' E 029°16'0 0.0
2014-Dec-16 19:33N 40°51' E 029°16'0 0.0
2014-Dec-16 18:33N 40°51' E 029°16'0 0.0
2014-Dec-16 17:33N 40°51' E 029°16'0 0.0
2014-Dec-16 16:33N 40°51' E 029°16'0 0.0
2014-Dec-16 15:33N 40°51' E 029°16'0 0.0
2014-Dec-16 14:33N 40°51' E 029°16'0 0.0
2014-Dec-16 13:34N 40°51' E 029°16'0 0.0
2014-Dec-16 12:34N 40°51' E 029°16'0 0.0
2014-Dec-16 11:33N 40°51' E 029°16'0 0.0
2014-Dec-16 10:33N 40°51' E 029°16'0 0.0
2014-Dec-16 09:34N 40°51' E 029°16'0 0.0
2014-Dec-16 08:33N 40°51' E 029°16'0 0.0
2014-Dec-16 07:33N 40°51' E 029°16'0 0.0
2014-Dec-16 06:33N 40°51' E 029°16'  
2014-Dec-13 18:33N 37°44' E 024°31'1818.2
2014-Dec-13 17:33N 37°29' E 024°18'4218.0
2014-Dec-13 15:12N 36°56' E 023°44'  
Track history (hours):
 
Tides and Currents Weather Stations Pressure Air Temp Water Temp Dewpoint Dewpoint Depression Visibility Wind Speed Wind Dir Waves Ship Positions

Un Karadeniz

Last reported at 2014-Dec-21 18:34 UTC. Time now 2014-Dec-22 01:24 UTC.
Position N 37°43' E 024°30'.

Length 193 m; draft 6.9 m.

Type: Ship (hazmat cat A). MMSI: 271002571.

Date/timePositionNaut miles runAvg speedWind from/ knotsBaromVisibWave heightAir tempDewpointWater temp
2014-Dec-21 18:34N 37°43' E 024°30'2117.9
2014-Dec-21 17:24N 37°26' E 024°15'2318.7
2014-Dec-21 16:10N 37°08' E 023°56'1219.1
2014-Dec-21 15:33N 36°59' E 023°47'  
2014-Dec-17 19:27N 36°24' E 022°52'2318.7
2014-Dec-17 18:12N 36°32' E 023°19'1320.7
2014-Dec-17 17:33N 36°42' E 023°30'2020.4
2014-Dec-17 16:33N 36°57' E 023°47'2019.6
2014-Dec-17 15:33N 37°13' E 024°02'2019.8
2014-Dec-17 14:34N 37°28' E 024°17'2019.6
2014-Dec-17 13:33N 37°45' E 024°31'2519.9
2014-Dec-17 12:17N 38°08' E 024°45'1519.8
2014-Dec-17 11:33N 38°21' E 024°53'14217.1
2014-Dec-17 03:14N 40°19' E 026°36'9419.8
2014-Dec-16 22:28N 40°52' E 028°32'1719.1
2014-Dec-16 21:33N 40°51' E 028°56'1615.6
2014-Dec-16 20:33N 40°51' E 029°16'0 0.0
2014-Dec-16 19:33N 40°51' E 029°16'0 0.0
2014-Dec-16 18:33N 40°51' E 029°16'0 0.0
2014-Dec-16 17:33N 40°51' E 029°16'0 0.0
2014-Dec-16 16:33N 40°51' E 029°16'0 0.0
2014-Dec-16 15:33N 40°51' E 029°16'0 0.0
2014-Dec-16 14:33N 40°51' E 029°16'0 0.0
2014-Dec-16 13:34N 40°51' E 029°16'0 0.0
2014-Dec-16 12:34N 40°51' E 029°16'0 0.0
2014-Dec-16 11:33N 40°51' E 029°16'0 0.0
2014-Dec-16 10:33N 40°51' E 029°16'0 0.0
2014-Dec-16 09:34N 40°51' E 029°16'0 0.0
2014-Dec-16 08:33N 40°51' E 029°16'0 0.0
2014-Dec-16 07:33N 40°51' E 029°16'0 0.0
2014-Dec-16 06:33N 40°51' E 029°16'  
2014-Dec-13 18:33N 37°44' E 024°31'1818.2
2014-Dec-13 17:33N 37°29' E 024°18'4218.0
2014-Dec-13 15:12N 36°56' E 023°44'  

Dump ship's entire track history